Impacts TAF Board
For situational awareness. Not to be used for flight planning purposes.
IDs:

KMDW - Chicago/Midway Intl, IL, US

Issued at 2057 UTC 21 Sep 2021
Updated at 2251 UTC 21 Sep 2021
Potential Impact None Slight Moderate High
Time2153Z 21/23Z 22/00Z 22/01Z 22/02Z 22/03Z 22/04Z 22/05Z 22/06Z 22/07Z 22/08Z 22/09Z 22/10Z 22/11Z>>
Type OBS PRVL PRVL PRVL PRVL PRVL PRVL PRVL PRVL PRVL PRVL PRVL PRVL PRVL
VIS 10 >6 >6 >6 >6 >6 >6 >6 >6 >6 >6 >6 >6 >6
CIG 40 45 45 45 45 45 50 50 50 50 50 50 50 50
Cover OVC BKN BKN BKN BKN BKN BKN BKN BKN BKN BKN BKN BKN BKN
FltCat VFR VFR VFR VFR VFR VFR VFR VFR VFR VFR VFR VFR VFR VFR
WX -- VCSH VCSH VCSH VCSH VCSH VCSH VCSH VCSH VCSH VCSH VCSH VCSH VCSH
WDir 20 20 20 20 20 20 360 360 360 360 360 360 360 360
WSpd 13 12 12 12 12 12 13 13 13 13 13 13 13 13
WGst -- 18 18 18 18 18 22 22 22 22 22 22 22 22
Raw TAF
KMDW 212057Z 2121/2224 02012G18KT P6SM VCSH SCT028 BKN045
  TEMPO 2121/2123 BKN028
  FM220400 36013G22KT P6SM VCSH SCT025 BKN050
  FM221200 01018G28KT P6SM VCSH BKN025
  FM221900 36022G33KT P6SM SCT035 BKN100


Raw METAR
KMDW 212153Z 02013KT 10SM FEW029 BKN040 OVC120 18/11 A3008 RMK AO2 SLP182 T01830106 $
KMDW 212129Z 03012KT 10SM BKN034 BKN110 OVC140 18/11 A3009 RMK AO2 T01830106 $
KMDW 212053Z 36012KT 10SM OVC028 19/11 A3008 RMK AO2 SLP181 T01890111 53001
KMDW 212030Z 01012KT 10SM OVC029 19/11 A3008 RMK AO2 T01890111
KMDW 211953Z 01010KT 10SM BKN034 OVC043 20/12 A3007 RMK AO2 SLP177 T02000117

METAR Board
Radar Display
Forecast Discussion
For situational awareness. Not to be used for flight planning purposes.